Amethyst — SYHQ — position and weather

sailwx.info

Track history (hours):
 
Tides and Currents Weather Stations Pressure Air Temp Water Temp Dewpoint Dewpoint Depression Visibility Wind Speed Wind Dir Waves Ship Positions

Amethyst

Last reported at 2018-Feb-20 19:30 UTC. Time now 2018-Feb-20 19:46 UTC.
Position N 37°52' E 023°20'.

Length 112 m; draft 5.4 m.

Type: Ship. MMSI: 240630000.

Date/timePositionNaut miles runAvg speedWind from/ knotsBaromVisibWave heightAir tempDewpointWater temp
2018-Feb-20 19:30N 37°52' E 023°20'611.8
2018-Feb-20 19:00N 37°53' E 023°12'611.9
2018-Feb-20 18:30N 37°53' E 023°05'5 8.8
2018-Feb-20 18:00N 37°56' E 022°60'2 5.0
2018-Feb-20 17:30N 37°57' E 022°58'3 6.9
2018-Feb-20 17:00N 37°59' E 022°54'612.0
2018-Feb-20 16:30N 38°02' E 022°47'611.9
2018-Feb-20 16:00N 38°05' E 022°41'611.7
2018-Feb-20 15:30N 38°08' E 022°34'3 0.1
2018-Feb-19 05:39N 38°10' E 022°31'1 7.7
2018-Feb-19 05:30N 38°09' E 022°32'4 7.7
2018-Feb-19 05:00N 38°07' E 022°37'4 7.8
2018-Feb-19 04:30N 38°06' E 022°41'4 7.8
2018-Feb-19 04:00N 38°04' E 022°45'4 7.9
2018-Feb-19 03:30N 38°02' E 022°50'4 7.8
2018-Feb-19 03:00N 37°59' E 022°53'4 7.4
2018-Feb-19 02:30N 37°57' E 022°57'2 4.2
2018-Feb-19 02:00N 37°56' E 022°59'2 4.7
2018-Feb-19 01:30N 37°55' E 023°02'3 6.4
2018-Feb-19 01:00N 37°53' E 023°05'4 7.8
2018-Feb-19 00:30N 37°53' E 023°11'4 7.8
2018-Feb-19 00:00N 37°53' E 023°15'4 7.7
2018-Feb-18 23:30N 37°52' E 023°20'4 7.7
2018-Feb-18 23:00N 37°52' E 023°25'4 7.7
2018-Feb-18 22:30N 37°51' E 023°30'3 6.4
2018-Feb-18 22:00N 37°52' E 023°34'4 7.7
2018-Feb-18 21:30N 37°56' E 023°36'1 2.6
2018-Feb-18 21:00N 37°57' E 023°37'0 0.0
2018-Feb-18 20:30N 37°57' E 023°37'0 0.0
2018-Feb-18 20:00N 37°57' E 023°37'0 0.0
2018-Feb-18 19:30N 37°57' E 023°37'0 0.0
2018-Feb-18 19:00N 37°57' E 023°37'0 0.0
2018-Feb-18 18:30N 37°57' E 023°37'0 0.0
2018-Feb-18 18:00N 37°57' E 023°37'0 0.0
2018-Feb-18 17:30N 37°57' E 023°37'0 0.0
2018-Feb-18 17:00N 37°57' E 023°37'0 0.0
2018-Feb-18 16:30N 37°57' E 023°37'0 0.0
2018-Feb-18 16:00N 37°57' E 023°37'0 0.0
2018-Feb-18 15:30N 37°57' E 023°37'0 0.0
2018-Feb-18 15:00N 37°57' E 023°37'0 0.0
2018-Feb-18 14:30N 37°57' E 023°37'0 0.0
2018-Feb-18 14:00N 37°57' E 023°37'0 0.0
2018-Feb-18 13:30N 37°57' E 023°37'0 0.0
2018-Feb-18 13:00N 37°57' E 023°37'0 0.0
2018-Feb-18 12:30N 37°57' E 023°37'0 0.0
2018-Feb-18 12:00N 37°57' E 023°37'0 0.0
2018-Feb-18 11:30N 37°57' E 023°37'0 0.0
2018-Feb-18 11:00N 37°57' E 023°37'0 0.0
2018-Feb-18 10:30N 37°57' E 023°37'0 0.0
2018-Feb-18 10:00N 37°57' E 023°37'0 0.0
2018-Feb-18 09:30N 37°57' E 023°37'0 0.0
2018-Feb-18 09:01N 37°57' E 023°37'1 3.0
2018-Feb-18 08:31N 37°55' E 023°37'3 6.8
2018-Feb-18 08:01N 37°52' E 023°38'4 7.4
2018-Feb-18 07:31N 37°49' E 023°40'4 7.3
2018-Feb-18 07:01N 37°46' E 023°43'4 7.0
2018-Feb-18 06:30N 37°42' E 023°45'3 6.5
2018-Feb-18 06:01N 37°40' E 023°47'4 7.3
2018-Feb-18 05:31N 37°39' E 023°51'7 7.1
2018-Feb-18 04:33N 37°38' E 023°60'0 7.2
2018-Feb-18 04:30N 37°38' E 024°00'4 7.2
2018-Feb-18 04:00N 37°37' E 024°05'11 7.6
2018-Feb-18 02:36N 37°44' E 024°16'1 7.6
2018-Feb-18 02:31N 37°44' E 024°16'  
2018-Feb-15 07:01N 37°49' E 024°24'0 6.3
2018-Feb-15 07:00N 37°49' E 024°24'29 6.4
2018-Feb-15 02:28N 37°39' E 023°49'3 7.0
2018-Feb-15 02:00N 37°39' E 023°45'3 6.5
2018-Feb-15 01:31N 37°41' E 023°42'4 7.1
2018-Feb-15 01:00N 37°44' E 023°40'4 7.2
2018-Feb-15 00:30N 37°47' E 023°38'3 6.8
2018-Feb-15 00:00N 37°49' E 023°34'4 7.6
2018-Feb-14 23:30N 37°50' E 023°29'4 7.6
2018-Feb-14 23:00N 37°50' E 023°25'4 7.7
2018-Feb-14 22:30N 37°51' E 023°20'4 7.5
2018-Feb-14 22:00N 37°52' E 023°15'4 7.8
2018-Feb-14 21:30N 37°53' E 023°10'4 7.8
2018-Feb-14 21:00N 37°54' E 023°06'4 7.7
2018-Feb-14 20:30N 37°55' E 023°01'1 2.8
2018-Feb-14 20:00N 37°56' E 022°60'1 2.9
2018-Feb-14 19:30N 37°57' E 022°58'2 3.2
2018-Feb-14 19:00N 37°58' E 022°57'0 0.5
2018-Feb-14 18:30N 37°58' E 022°56'1 2.0
2018-Feb-14 18:00N 37°59' E 022°56'1 2.2
2018-Feb-14 17:30N 37°59' E 022°54'1 2.9
2018-Feb-14 17:00N 37°60' E 022°53'3 5.2
2018-Feb-14 16:30N 38°01' E 022°50'3 5.6
2018-Feb-14 16:00N 38°03' E 022°47'4 7.2
2018-Feb-14 15:30N 38°05' E 022°43'4 8.3
2018-Feb-14 15:00N 38°07' E 022°38'4 8.3
2018-Feb-14 14:28N 38°09' E 022°34'3 0.1
2018-Feb-13 02:46N 38°10' E 022°30'2 7.3
2018-Feb-13 02:30N 38°09' E 022°32'4 7.1
2018-Feb-13 02:00N 38°07' E 022°36'4 7.1
2018-Feb-13 01:30N 38°06' E 022°40'4 7.3
2018-Feb-13 01:00N 38°04' E 022°44'4 7.6
2018-Feb-13 00:31N 38°02' E 022°48'4 7.7
2018-Feb-13 00:01N 37°60' E 022°53'4 7.6
2018-Feb-12 23:31N 37°58' E 022°57'3 4.4
2018-Feb-12 22:54N 37°56' E 022°59'1 3.7
2018-Feb-12 22:31N 37°55' E 023°01'3 5.1
2018-Feb-12 22:01N 37°54' E 023°03'4 7.3
2018-Feb-12 21:31N 37°53' E 023°08'4 7.2
2018-Feb-12 21:00N 37°53' E 023°12'4 7.3
2018-Feb-12 20:30N 37°52' E 023°17'4 7.3
2018-Feb-12 20:00N 37°51' E 023°21'4 7.3
2018-Feb-12 19:30N 37°51' E 023°26'4 7.6
2018-Feb-12 19:00N 37°50' E 023°31'3 7.0
2018-Feb-12 18:31N 37°53' E 023°34'4 7.7
2018-Feb-12 18:00N 37°56' E 023°36'1 1.5
2018-Feb-12 17:29N 37°57' E 023°37'0 0.0
2018-Feb-12 16:59N 37°57' E 023°37'0 0.0
2018-Feb-12 16:29N 37°57' E 023°37'0 0.0
2018-Feb-12 15:59N 37°57' E 023°37'0 0.0
2018-Feb-12 15:29N 37°57' E 023°37'0 0.0
2018-Feb-12 14:59N 37°57' E 023°37'0 0.0
2018-Feb-12 14:29N 37°57' E 023°37'0 0.0
2018-Feb-12 13:59N 37°57' E 023°37'0 0.0
2018-Feb-12 13:29N 37°57' E 023°37'0 0.0
2018-Feb-12 12:59N 37°57' E 023°37'0 0.0
2018-Feb-12 12:29N 37°57' E 023°37'0 0.0
2018-Feb-12 11:59N 37°57' E 023°37'0 0.0
2018-Feb-12 11:29N 37°57' E 023°37'0 0.0
2018-Feb-12 10:59N 37°57' E 023°37'0 0.0
2018-Feb-12 10:26N 37°57' E 023°37'0 0.0
2018-Feb-12 09:59N 37°57' E 023°37'0 0.0
2018-Feb-12 09:29N 37°57' E 023°37'0 0.0
2018-Feb-12 08:59N 37°57' E 023°37'0 0.0
2018-Feb-12 08:29N 37°57' E 023°37'0 0.0
2018-Feb-12 07:59N 37°57' E 023°37'0 0.0
2018-Feb-12 07:29N 37°57' E 023°37'0 0.0
2018-Feb-12 06:59N 37°57' E 023°37'0 0.0
2018-Feb-12 06:29N 37°57' E 023°37'0 0.0
2018-Feb-12 06:01N 37°57' E 023°37'1 1.5
2018-Feb-12 05:30N 37°56' E 023°36'1 2.7
2018-Feb-12 05:01N 37°55' E 023°37'3 5.1
2018-Feb-12 04:31N 37°53' E 023°38'4 8.3
2018-Feb-12 04:00N 37°49' E 023°40'4 8.2
2018-Feb-12 03:31N 37°45' E 023°43'4 8.1
2018-Feb-12 03:01N 37°41' E 023°45'4 7.3
2018-Feb-12 02:30N 37°39' E 023°49'4 8.5
2018-Feb-12 01:59N 37°38' E 023°54'6 8.0
2018-Feb-12 01:14N 37°37' E 024°02'2 8.1
2018-Feb-12 00:58N 37°38' E 024°04'11 8.6
2018-Feb-11 23:40N 37°43' E 024°16'1 9.0
2018-Feb-11 23:31N 37°44' E 024°18'  
Track history (hours):
 
Tides and Currents Weather Stations Pressure Air Temp Water Temp Dewpoint Dewpoint Depression Visibility Wind Speed Wind Dir Waves Ship Positions

Amethyst

Last reported at 2018-Feb-20 19:30 UTC. Time now 2018-Feb-20 19:47 UTC.
Position N 37°52' E 023°20'.

Length 112 m; draft 5.4 m.

Type: Ship. MMSI: 240630000.

Date/timePositionNaut miles runAvg speedWind from/ knotsBaromVisibWave heightAir tempDewpointWater temp
2018-Feb-20 19:30N 37°52' E 023°20'611.8
2018-Feb-20 19:00N 37°53' E 023°12'611.9
2018-Feb-20 18:30N 37°53' E 023°05'5 8.8
2018-Feb-20 18:00N 37°56' E 022°60'2 5.0
2018-Feb-20 17:30N 37°57' E 022°58'3 6.9
2018-Feb-20 17:00N 37°59' E 022°54'612.0
2018-Feb-20 16:30N 38°02' E 022°47'611.9
2018-Feb-20 16:00N 38°05' E 022°41'611.7
2018-Feb-20 15:30N 38°08' E 022°34'3 0.1
2018-Feb-19 05:39N 38°10' E 022°31'1 7.7
2018-Feb-19 05:30N 38°09' E 022°32'4 7.7
2018-Feb-19 05:00N 38°07' E 022°37'4 7.8
2018-Feb-19 04:30N 38°06' E 022°41'4 7.8
2018-Feb-19 04:00N 38°04' E 022°45'4 7.9
2018-Feb-19 03:30N 38°02' E 022°50'4 7.8
2018-Feb-19 03:00N 37°59' E 022°53'4 7.4
2018-Feb-19 02:30N 37°57' E 022°57'2 4.2
2018-Feb-19 02:00N 37°56' E 022°59'2 4.7
2018-Feb-19 01:30N 37°55' E 023°02'3 6.4
2018-Feb-19 01:00N 37°53' E 023°05'4 7.8
2018-Feb-19 00:30N 37°53' E 023°11'4 7.8
2018-Feb-19 00:00N 37°53' E 023°15'4 7.7
2018-Feb-18 23:30N 37°52' E 023°20'4 7.7
2018-Feb-18 23:00N 37°52' E 023°25'4 7.7
2018-Feb-18 22:30N 37°51' E 023°30'3 6.4
2018-Feb-18 22:00N 37°52' E 023°34'4 7.7
2018-Feb-18 21:30N 37°56' E 023°36'1 2.6
2018-Feb-18 21:00N 37°57' E 023°37'0 0.0
2018-Feb-18 20:30N 37°57' E 023°37'0 0.0
2018-Feb-18 20:00N 37°57' E 023°37'0 0.0
2018-Feb-18 19:30N 37°57' E 023°37'0 0.0
2018-Feb-18 19:00N 37°57' E 023°37'0 0.0
2018-Feb-18 18:30N 37°57' E 023°37'0 0.0
2018-Feb-18 18:00N 37°57' E 023°37'0 0.0
2018-Feb-18 17:30N 37°57' E 023°37'0 0.0
2018-Feb-18 17:00N 37°57' E 023°37'0 0.0
2018-Feb-18 16:30N 37°57' E 023°37'0 0.0
2018-Feb-18 16:00N 37°57' E 023°37'0 0.0
2018-Feb-18 15:30N 37°57' E 023°37'0 0.0
2018-Feb-18 15:00N 37°57' E 023°37'0 0.0
2018-Feb-18 14:30N 37°57' E 023°37'0 0.0
2018-Feb-18 14:00N 37°57' E 023°37'0 0.0
2018-Feb-18 13:30N 37°57' E 023°37'0 0.0
2018-Feb-18 13:00N 37°57' E 023°37'0 0.0
2018-Feb-18 12:30N 37°57' E 023°37'0 0.0
2018-Feb-18 12:00N 37°57' E 023°37'0 0.0
2018-Feb-18 11:30N 37°57' E 023°37'0 0.0
2018-Feb-18 11:00N 37°57' E 023°37'0 0.0
2018-Feb-18 10:30N 37°57' E 023°37'0 0.0
2018-Feb-18 10:00N 37°57' E 023°37'0 0.0
2018-Feb-18 09:30N 37°57' E 023°37'0 0.0
2018-Feb-18 09:01N 37°57' E 023°37'1 3.0
2018-Feb-18 08:31N 37°55' E 023°37'3 6.8
2018-Feb-18 08:01N 37°52' E 023°38'4 7.4
2018-Feb-18 07:31N 37°49' E 023°40'4 7.3
2018-Feb-18 07:01N 37°46' E 023°43'4 7.0
2018-Feb-18 06:30N 37°42' E 023°45'3 6.5
2018-Feb-18 06:01N 37°40' E 023°47'4 7.3
2018-Feb-18 05:31N 37°39' E 023°51'7 7.1
2018-Feb-18 04:33N 37°38' E 023°60'0 7.2
2018-Feb-18 04:30N 37°38' E 024°00'4 7.2
2018-Feb-18 04:00N 37°37' E 024°05'11 7.6
2018-Feb-18 02:36N 37°44' E 024°16'1 7.6
2018-Feb-18 02:31N 37°44' E 024°16'  
2018-Feb-15 07:01N 37°49' E 024°24'0 6.3
2018-Feb-15 07:00N 37°49' E 024°24'29 6.4
2018-Feb-15 02:28N 37°39' E 023°49'3 7.0
2018-Feb-15 02:00N 37°39' E 023°45'3 6.5
2018-Feb-15 01:31N 37°41' E 023°42'4 7.1
2018-Feb-15 01:00N 37°44' E 023°40'4 7.2
2018-Feb-15 00:30N 37°47' E 023°38'3 6.8
2018-Feb-15 00:00N 37°49' E 023°34'4 7.6
2018-Feb-14 23:30N 37°50' E 023°29'4 7.6
2018-Feb-14 23:00N 37°50' E 023°25'4 7.7
2018-Feb-14 22:30N 37°51' E 023°20'4 7.5
2018-Feb-14 22:00N 37°52' E 023°15'4 7.8
2018-Feb-14 21:30N 37°53' E 023°10'4 7.8
2018-Feb-14 21:00N 37°54' E 023°06'4 7.7
2018-Feb-14 20:30N 37°55' E 023°01'1 2.8
2018-Feb-14 20:00N 37°56' E 022°60'1 2.9
2018-Feb-14 19:30N 37°57' E 022°58'2 3.2
2018-Feb-14 19:00N 37°58' E 022°57'0 0.5
2018-Feb-14 18:30N 37°58' E 022°56'1 2.0
2018-Feb-14 18:00N 37°59' E 022°56'1 2.2
2018-Feb-14 17:30N 37°59' E 022°54'1 2.9
2018-Feb-14 17:00N 37°60' E 022°53'3 5.2
2018-Feb-14 16:30N 38°01' E 022°50'3 5.6
2018-Feb-14 16:00N 38°03' E 022°47'4 7.2
2018-Feb-14 15:30N 38°05' E 022°43'4 8.3
2018-Feb-14 15:00N 38°07' E 022°38'4 8.3
2018-Feb-14 14:28N 38°09' E 022°34'3 0.1
2018-Feb-13 02:46N 38°10' E 022°30'2 7.3
2018-Feb-13 02:30N 38°09' E 022°32'4 7.1
2018-Feb-13 02:00N 38°07' E 022°36'4 7.1
2018-Feb-13 01:30N 38°06' E 022°40'4 7.3
2018-Feb-13 01:00N 38°04' E 022°44'4 7.6
2018-Feb-13 00:31N 38°02' E 022°48'4 7.7
2018-Feb-13 00:01N 37°60' E 022°53'4 7.6
2018-Feb-12 23:31N 37°58' E 022°57'3 4.4
2018-Feb-12 22:54N 37°56' E 022°59'1 3.7
2018-Feb-12 22:31N 37°55' E 023°01'3 5.1
2018-Feb-12 22:01N 37°54' E 023°03'4 7.3
2018-Feb-12 21:31N 37°53' E 023°08'4 7.2
2018-Feb-12 21:00N 37°53' E 023°12'4 7.3
2018-Feb-12 20:30N 37°52' E 023°17'4 7.3
2018-Feb-12 20:00N 37°51' E 023°21'4 7.3
2018-Feb-12 19:30N 37°51' E 023°26'4 7.6
2018-Feb-12 19:00N 37°50' E 023°31'3 7.0
2018-Feb-12 18:31N 37°53' E 023°34'4 7.7
2018-Feb-12 18:00N 37°56' E 023°36'1 1.5
2018-Feb-12 17:29N 37°57' E 023°37'0 0.0
2018-Feb-12 16:59N 37°57' E 023°37'0 0.0
2018-Feb-12 16:29N 37°57' E 023°37'0 0.0
2018-Feb-12 15:59N 37°57' E 023°37'0 0.0
2018-Feb-12 15:29N 37°57' E 023°37'0 0.0
2018-Feb-12 14:59N 37°57' E 023°37'0 0.0
2018-Feb-12 14:29N 37°57' E 023°37'0 0.0
2018-Feb-12 13:59N 37°57' E 023°37'0 0.0
2018-Feb-12 13:29N 37°57' E 023°37'0 0.0
2018-Feb-12 12:59N 37°57' E 023°37'0 0.0
2018-Feb-12 12:29N 37°57' E 023°37'0 0.0
2018-Feb-12 11:59N 37°57' E 023°37'0 0.0
2018-Feb-12 11:29N 37°57' E 023°37'0 0.0
2018-Feb-12 10:59N 37°57' E 023°37'0 0.0
2018-Feb-12 10:26N 37°57' E 023°37'0 0.0
2018-Feb-12 09:59N 37°57' E 023°37'0 0.0
2018-Feb-12 09:29N 37°57' E 023°37'0 0.0
2018-Feb-12 08:59N 37°57' E 023°37'0 0.0
2018-Feb-12 08:29N 37°57' E 023°37'0 0.0
2018-Feb-12 07:59N 37°57' E 023°37'0 0.0
2018-Feb-12 07:29N 37°57' E 023°37'0 0.0
2018-Feb-12 06:59N 37°57' E 023°37'0 0.0
2018-Feb-12 06:29N 37°57' E 023°37'0 0.0
2018-Feb-12 06:01N 37°57' E 023°37'1 1.5
2018-Feb-12 05:30N 37°56' E 023°36'1 2.7
2018-Feb-12 05:01N 37°55' E 023°37'3 5.1
2018-Feb-12 04:31N 37°53' E 023°38'4 8.3
2018-Feb-12 04:00N 37°49' E 023°40'4 8.2
2018-Feb-12 03:31N 37°45' E 023°43'4 8.1
2018-Feb-12 03:01N 37°41' E 023°45'4 7.3
2018-Feb-12 02:30N 37°39' E 023°49'4 8.5
2018-Feb-12 01:59N 37°38' E 023°54'6 8.0
2018-Feb-12 01:14N 37°37' E 024°02'2 8.1
2018-Feb-12 00:58N 37°38' E 024°04'11 8.6
2018-Feb-11 23:40N 37°43' E 024°16'1 9.0
2018-Feb-11 23:31N 37°44' E 024°18'  

Dump ship's entire track history